Aeroporto :
LOGIN :

Iscrizione | Disclaimer

   EN    FR    IT 

 










Sommario :    VFR   VFR Marginale   IFR   IFR Intensivo   IFR Molto Intensivo
Visibilità : 
Base nubi : 
>= 8 km
>= 3000ft
5 / 8 km
1000 / 3000 ft
1500m / 5 km
500 / 1000 ft
800 / 1500m
200 / 500 ft
< 800m
< 200 ft
Simboli :   Temporali  Nebbia  Neve Forte  Precipitazioni Forti  Vento > 20 kt
SIGMETs :   Varie  Temporali  Ghiacco  Turbolenza  Onda orograficha  Ceneri Vulcaniche






- Altitudine del aeroporto : 277 ft
- Codice IATA : JER


EGJJ - Jersey

ULTIMO METAR :
  • 200220Z AUTO 15015KT 9999 NCD 06/04 Q1012

METARs OBSOLETI :
  • 200150Z AUTO 15015KT 9999 FEW012/// 06/05 Q1012
  • 200120Z AUTO 15016KT 9999 NCD 07/05 Q1012
  • 200050Z AUTO 16015KT 9999 NCD 07/05 Q1013
  • 200020Z AUTO 16014KT 9999 FEW014/// 07/05 Q1013
  • 192350Z AUTO 16015KT 9999 FEW012/// 07/05 Q1013

TAF TAF EGJJ
Valido dal 20 a 03 ore il 20 a 12 ore UTC


200155Z 2003/2012 14016KT 9999 FEW011 SCT035
ATIS : +44 1534 498 073



MetMap, La meteo Aeronautica in un colpo d'occhio ! - Copyright ORBIFLY Dicembre 2007 - Disclaimer

ORBIFLY MET'MAP TEAM :

Programmazione e sviluppo : Alexandra Zaïnal
Concezione e sviluppo : Baudouin d'Aumeries
Co-Programmazione e sviluppo : Marc-Olivier Méhu
Supporto tecnico e logistico : Manuel Goepfert
Aiuto per la traduzione : Arnaldo La Scala

Contatto : metmap@orbifly.com




FONTI E CREDITI :

   NOAA